createdAt,value
2023-01-13T00:01:29.124Z,101899.72
2023-01-13T00:03:56.633Z,101885.31
2023-01-13T00:06:27.862Z,101887.03
2023-01-13T00:08:54.816Z,101902.22
2023-01-13T00:11:21.862Z,101891.72
2023-01-13T00:13:48.361Z,101888.94
2023-01-13T00:16:17.965Z,101884.28
2023-01-13T00:18:45.606Z,101880.69
2023-01-13T00:21:18.275Z,101877.13
2023-01-13T00:23:45.086Z,101886.19
2023-01-13T00:26:15.096Z,101874.72
2023-01-13T00:28:41.673Z,101870.31
2023-01-13T00:31:10.906Z,101862.38
2023-01-13T00:33:38.169Z,101857.91
2023-01-13T00:36:06.389Z,101864.97
2023-01-13T00:38:34.769Z,101874.78
2023-01-13T00:41:02.323Z,101868.75
2023-01-13T00:43:30.337Z,101851.84
2023-01-13T00:45:58.164Z,101846.44
2023-01-13T00:48:25.524Z,101841.16
2023-01-13T00:50:56.530Z,101836.69
2023-01-13T00:53:23.153Z,101835.66
2023-01-13T00:55:50.061Z,101829.47
2023-01-13T00:58:16.575Z,101831.00
2023-01-13T01:00:43.184Z,101839.81
2023-01-13T01:03:12.216Z,101835.25
2023-01-13T01:05:39.738Z,101844.19
2023-01-13T01:08:06.404Z,101835.25
2023-01-13T01:10:32.843Z,101830.84
2023-01-13T01:12:59.414Z,101831.00
2023-01-13T01:15:26.640Z,101831.09
2023-01-13T01:17:53.159Z,101826.69
2023-01-13T01:20:19.728Z,101824.19
2023-01-13T01:22:46.452Z,101821.69
2023-01-13T01:25:13.000Z,101822.63
2023-01-13T01:27:39.518Z,101823.59
2023-01-13T01:30:06.772Z,101819.97
2023-01-13T01:32:34.759Z,101821.78
2023-01-13T01:35:01.221Z,101821.78
2023-01-13T01:37:27.760Z,101818.25
2023-01-13T01:39:54.509Z,101820.81
2023-01-13T01:42:41.323Z,101820.66
2023-01-13T01:45:21.476Z,101816.25
2023-01-13T01:47:51.194Z,101812.53
2023-01-13T01:50:19.347Z,101811.69
2023-01-13T01:52:52.913Z,101816.88
2023-01-13T01:55:22.961Z,101821.34
2023-01-13T01:58:09.025Z,101809.97
2023-01-13T02:00:35.597Z,101810.22
2023-01-13T02:03:03.539Z,101804.97
2023-01-13T02:05:30.119Z,101800.56
2023-01-13T02:07:57.987Z,101796.16
2023-01-13T02:10:27.669Z,101782.97
2023-01-13T02:12:55.954Z,101789.41
2023-01-13T02:15:26.821Z,101785.19
2023-01-13T02:18:18.240Z,101779.06
2023-01-13T02:20:50.712Z,101779.25
2023-01-13T02:23:57.687Z,101773.97
2023-01-13T02:26:50.791Z,101777.75
2023-01-13T02:30:06.681Z,101772.69
2023-01-13T02:32:43.873Z,101758.81
2023-01-13T02:35:50.190Z,101747.53
2023-01-13T02:38:17.443Z,101739.66
2023-01-13T02:40:55.747Z,101742.41
2023-01-13T02:43:51.901Z,101745.06
2023-01-13T02:46:25.590Z,101732.75
2023-01-13T02:48:54.651Z,101731.13
2023-01-13T02:51:22.574Z,101725.00
2023-01-13T02:54:10.764Z,101720.50
2023-01-13T02:56:40.574Z,101716.22
2023-01-13T02:59:07.167Z,101733.94
2023-01-13T03:01:33.837Z,101730.41
2023-01-13T03:04:11.551Z,101729.56
2023-01-13T03:06:56.597Z,101725.25
2023-01-13T03:09:33.270Z,101723.44
2023-01-13T03:12:06.378Z,101714.72
2023-01-13T03:14:45.815Z,101722.66
2023-01-13T03:17:22.561Z,101724.38
2023-01-13T03:19:55.061Z,101719.81
2023-01-13T03:22:28.715Z,101724.16
2023-01-13T03:24:57.781Z,101715.88
2023-01-13T03:27:33.103Z,101702.28
2023-01-13T03:30:19.061Z,101695.81
2023-01-13T03:32:49.814Z,101687.75
2023-01-13T03:35:24.133Z,101692.97
2023-01-13T03:37:57.015Z,101696.34
2023-01-13T03:40:30.319Z,101696.00
2023-01-13T03:43:23.001Z,101689.53
2023-01-13T03:45:53.862Z,101684.47
2023-01-13T03:48:23.127Z,101685.41
2023-01-13T03:50:56.412Z,101681.88
2023-01-13T03:53:47.661Z,101684.47
2023-01-13T03:56:22.731Z,101689.03
2023-01-13T03:58:50.902Z,101679.53
2023-01-13T04:01:40.772Z,101677.97
2023-01-13T04:04:10.446Z,101682.41
2023-01-13T04:06:42.295Z,101675.31
2023-01-13T04:09:33.794Z,101668.25
2023-01-13T04:12:11.885Z,101663.97
2023-01-13T04:14:39.208Z,101675.66
2023-01-13T04:17:05.764Z,101675.84
2023-01-13T04:19:33.048Z,101665.31
2023-01-13T04:21:59.796Z,101659.97
2023-01-13T04:24:26.398Z,101663.75
2023-01-13T04:26:52.978Z,101671.16
2023-01-13T04:29:19.649Z,101663.22
2023-01-13T04:31:46.320Z,101670.38
2023-01-13T04:34:13.056Z,101658.78
2023-01-13T04:36:39.758Z,101661.34
2023-01-13T04:39:06.435Z,101652.22
2023-01-13T04:41:52.891Z,101660.94
2023-01-13T04:44:19.520Z,101652.91
2023-01-13T04:46:46.489Z,101658.25
2023-01-13T04:49:13.030Z,101646.81
2023-01-13T04:51:40.877Z,101646.94
2023-01-13T04:54:07.453Z,101645.44
2023-01-13T04:56:34.090Z,101650.06
2023-01-13T04:59:00.618Z,101650.22
2023-01-13T05:01:27.385Z,101659.34
2023-01-13T05:03:54.108Z,101655.03
2023-01-13T05:06:21.179Z,101657.78
2023-01-13T05:08:47.744Z,101656.91
2023-01-13T05:11:32.644Z,101669.47
2023-01-13T05:14:17.527Z,101659.91
2023-01-13T05:17:03.222Z,101648.56
2023-01-13T05:19:35.807Z,101652.09
2023-01-13T05:22:21.840Z,101647.69
2023-01-13T05:25:07.129Z,101644.22
2023-01-13T05:27:33.935Z,101655.78
2023-01-13T05:30:01.524Z,101656.72
2023-01-13T05:32:28.389Z,101649.56
2023-01-13T05:34:55.924Z,101657.50
2023-01-13T05:37:23.220Z,101648.56
2023-01-13T05:40:08.715Z,101659.06
2023-01-13T05:42:55.971Z,101654.50
2023-01-13T05:45:22.642Z,101652.69
2023-01-13T05:47:49.350Z,101655.28
2023-01-13T05:50:16.510Z,101662.34
2023-01-13T05:52:43.486Z,101658.81
2023-01-13T05:55:11.018Z,101657.00
2023-01-13T05:57:37.564Z,101650.47
2023-01-13T06:00:05.372Z,101648.50
2023-01-13T06:02:34.248Z,101658.94
2023-01-13T06:05:00.819Z,101662.28
2023-01-13T06:07:27.515Z,101663.94
2023-01-13T06:09:54.049Z,101662.97
2023-01-13T06:12:20.582Z,101670.19
2023-01-13T06:14:47.049Z,101669.19
2023-01-13T06:17:15.365Z,101663.75
2023-01-13T06:19:42.301Z,101660.22
2023-01-13T06:22:13.732Z,101657.56
2023-01-13T06:24:40.380Z,101656.69
2023-01-13T06:27:08.746Z,101659.38
2023-01-13T06:29:35.850Z,101654.88
2023-01-13T06:32:06.032Z,101658.41
2023-01-13T06:34:34.911Z,101660.16
2023-01-13T06:37:02.240Z,101660.22
2023-01-13T06:39:31.174Z,101665.63
2023-01-13T06:42:16.891Z,101662.97
2023-01-13T06:44:44.773Z,101668.22
2023-01-13T06:47:11.384Z,101664.63
2023-01-13T06:49:37.959Z,101664.72
2023-01-13T06:52:05.549Z,101665.56
2023-01-13T06:54:32.105Z,101663.84
2023-01-13T06:56:58.698Z,101675.31
2023-01-13T06:59:25.827Z,101676.94
2023-01-13T07:01:52.637Z,101674.19
2023-01-13T07:04:19.517Z,101681.19
2023-01-13T07:06:46.103Z,101680.13
2023-01-13T07:09:12.818Z,101676.53
2023-01-13T07:11:39.418Z,101673.69
2023-01-13T07:14:24.458Z,101667.41
2023-01-13T07:16:52.550Z,101681.50
2023-01-13T07:19:23.703Z,101686.84
2023-01-13T07:21:53.421Z,101684.09
2023-01-13T07:24:20.237Z,101686.78
2023-01-13T07:26:48.193Z,101685.91
2023-01-13T07:29:14.786Z,101688.41
2023-01-13T07:31:41.362Z,101689.09
2023-01-13T07:34:07.988Z,101688.06
2023-01-13T07:36:34.848Z,101682.50
2023-01-13T07:39:01.449Z,101680.50
2023-01-13T07:41:46.711Z,101680.22
2023-01-13T07:44:13.556Z,101680.06
2023-01-13T07:46:40.620Z,101683.50
2023-01-13T07:49:08.283Z,101677.06
2023-01-13T07:51:38.990Z,101680.31
2023-01-13T07:54:06.099Z,101686.34
2023-01-13T07:56:32.940Z,101683.59
2023-01-13T07:59:01.108Z,101677.28
2023-01-13T08:01:28.344Z,101683.41
2023-01-13T08:03:56.268Z,101700.84
2023-01-13T08:06:23.017Z,101704.28
2023-01-13T08:08:49.580Z,101701.50
2023-01-13T08:11:16.113Z,101713.94
2023-01-13T08:13:42.654Z,101706.69
2023-01-13T08:16:14.295Z,101703.94
2023-01-13T08:18:41.482Z,101703.75
2023-01-13T08:21:11.392Z,101709.66
2023-01-13T08:23:38.333Z,101697.84
2023-01-13T08:26:07.983Z,101690.34
2023-01-13T08:28:34.977Z,101692.84
2023-01-13T08:31:02.959Z,101690.84
2023-01-13T08:33:29.949Z,101687.09
2023-01-13T08:35:56.952Z,101693.00
2023-01-13T08:38:24.283Z,101687.50
2023-01-13T08:40:50.847Z,101694.28
2023-01-13T08:43:17.404Z,101690.47
2023-01-13T08:45:43.935Z,101700.03
2023-01-13T08:48:10.735Z,101688.28
2023-01-13T08:50:37.360Z,101692.50
2023-01-13T08:53:03.979Z,101679.88
2023-01-13T08:55:30.522Z,101680.66
2023-01-13T08:58:14.068Z,101680.28
2023-01-13T09:00:42.056Z,101680.75
2023-01-13T09:03:08.550Z,101681.16
2023-01-13T09:05:36.672Z,101683.38
2023-01-13T09:08:03.246Z,101692.72
2023-01-13T09:10:30.981Z,101703.06
2023-01-13T09:13:12.827Z,101709.09
2023-01-13T09:15:41.117Z,101708.25
2023-01-13T09:18:07.979Z,101703.81
2023-01-13T09:20:34.470Z,101707.47
2023-01-13T09:23:01.302Z,101713.78
2023-01-13T09:25:27.914Z,101702.22
2023-01-13T09:27:54.553Z,101714.53
2023-01-13T09:30:21.212Z,101717.22
2023-01-13T09:32:47.780Z,101725.16
2023-01-13T09:35:14.318Z,101730.22
2023-01-13T09:37:41.612Z,101739.63
2023-01-13T09:40:16.038Z,101727.63
2023-01-13T09:43:22.580Z,101725.47
2023-01-13T09:45:58.383Z,101724.78
2023-01-13T09:48:29.679Z,101733.38
2023-01-13T09:51:18.790Z,101742.94
2023-01-13T09:53:55.800Z,101740.09
2023-01-13T09:56:26.001Z,101755.88
2023-01-13T09:58:52.805Z,101759.19
2023-01-13T10:01:30.135Z,101756.25
2023-01-13T10:03:56.741Z,101746.16
2023-01-13T10:06:38.868Z,101740.41
2023-01-13T10:09:05.742Z,101738.41
2023-01-13T10:11:55.924Z,101728.25
2023-01-13T10:14:35.382Z,101725.94
2023-01-13T10:17:40.354Z,101726.41
2023-01-13T10:20:24.772Z,101720.63
2023-01-13T10:23:10.155Z,101707.88
2023-01-13T10:26:24.113Z,101704.81
2023-01-13T10:28:57.770Z,101713.59
2023-01-13T10:31:25.351Z,101707.28
2023-01-13T10:34:05.987Z,101703.63
2023-01-13T10:36:32.504Z,101695.50
2023-01-13T10:39:15.530Z,101696.25
2023-01-13T10:41:42.143Z,101690.75
2023-01-13T10:44:17.021Z,101694.97
2023-01-13T10:46:55.254Z,101680.59
2023-01-13T10:49:32.920Z,101682.53
2023-01-13T10:52:00.837Z,101687.88
2023-01-13T10:54:28.074Z,101675.66
2023-01-13T10:57:15.971Z,101679.19
2023-01-13T10:59:42.646Z,101686.38
2023-01-13T11:02:24.241Z,101675.41
2023-01-13T11:04:54.637Z,101679.75
2023-01-13T11:07:29.041Z,101674.16
2023-01-13T11:10:17.704Z,101684.47
2023-01-13T11:13:11.524Z,101677.09
2023-01-13T11:15:45.185Z,101681.28
2023-01-13T11:18:41.205Z,101686.31
2023-01-13T11:21:18.165Z,101677.94
2023-01-13T11:23:49.361Z,101680.31
2023-01-13T11:26:23.922Z,101680.03
2023-01-13T11:29:17.854Z,101681.50
2023-01-13T11:31:48.697Z,101685.81
2023-01-13T11:34:37.257Z,101679.38
2023-01-13T11:37:10.079Z,101671.97
2023-01-13T11:39:46.880Z,101672.72
2023-01-13T11:42:21.175Z,101671.53
2023-01-13T11:45:09.384Z,101677.34
2023-01-13T11:47:36.720Z,101670.56
2023-01-13T11:50:03.847Z,101667.44
2023-01-13T11:52:59.618Z,101669.59
2023-01-13T11:56:05.906Z,101668.16
2023-01-13T11:58:51.506Z,101653.22
2023-01-13T12:01:49.562Z,101649.16
2023-01-13T12:04:23.795Z,101643.94
2023-01-13T12:07:00.636Z,101636.19
2023-01-13T12:09:45.709Z,101636.72
2023-01-13T12:12:41.403Z,101615.81
2023-01-13T12:15:29.421Z,101611.19
2023-01-13T12:18:27.853Z,101600.13
2023-01-13T12:21:19.164Z,101591.69
2023-01-13T12:23:56.682Z,101580.50
2023-01-13T12:26:23.314Z,101581.97
2023-01-13T12:29:07.951Z,101578.06
2023-01-13T12:31:37.043Z,101580.53
2023-01-13T12:34:12.845Z,101581.25
2023-01-13T12:37:01.217Z,101569.28
2023-01-13T12:39:45.908Z,101571.88
2023-01-13T12:42:59.162Z,101567.34
2023-01-13T12:45:30.290Z,101558.78
2023-01-13T12:47:58.475Z,101560.59
2023-01-13T12:50:24.956Z,101560.38
2023-01-13T12:52:59.209Z,101555.59
2023-01-13T12:55:32.972Z,101552.69
2023-01-13T12:58:08.475Z,101549.16
2023-01-13T13:00:59.369Z,101526.75
2023-01-13T13:03:29.220Z,101517.72
2023-01-13T13:05:59.532Z,101525.78
2023-01-13T13:08:29.213Z,101515.88
2023-01-13T13:11:53.814Z,101516.50
2023-01-13T13:14:41.499Z,101501.09
2023-01-13T13:17:20.175Z,101508.91
2023-01-13T13:19:48.913Z,101487.53
2023-01-13T13:22:19.195Z,101501.31
2023-01-13T13:24:48.586Z,101491.19
2023-01-13T13:27:18.599Z,101500.47
2023-01-13T13:29:58.930Z,101504.84
2023-01-13T13:32:50.094Z,101494.09
2023-01-13T13:35:41.136Z,101506.69
2023-01-13T13:38:32.408Z,101502.31
2023-01-13T13:41:17.807Z,101520.50
2023-01-13T13:44:04.039Z,101506.44
2023-01-13T13:46:47.467Z,101524.50
2023-01-13T13:49:18.153Z,101521.94
2023-01-13T13:52:12.421Z,101514.84
2023-01-13T13:54:41.513Z,101514.84
2023-01-13T13:57:19.562Z,101509.47
2023-01-13T13:59:49.381Z,101507.88
2023-01-13T14:02:20.556Z,101511.53
2023-01-13T14:04:47.254Z,101516.06
2023-01-13T14:07:21.617Z,101527.66
2023-01-13T14:09:51.035Z,101523.28
2023-01-13T14:12:23.285Z,101522.41
2023-01-13T14:14:50.780Z,101534.03
2023-01-13T14:17:25.051Z,101544.78
2023-01-13T14:19:53.438Z,101526.94
2023-01-13T14:22:20.189Z,101526.94
2023-01-13T14:24:49.280Z,101513.63
2023-01-13T14:27:17.839Z,101519.09
2023-01-13T14:29:45.306Z,101527.19
2023-01-13T14:32:18.153Z,101519.84
2023-01-13T14:34:44.752Z,101536.72
2023-01-13T14:37:42.519Z,101551.88
2023-01-13T14:40:36.180Z,101552.84
2023-01-13T14:43:04.564Z,101543.91
2023-01-13T14:45:33.167Z,101544.78
2023-01-13T14:48:01.029Z,101544.78
2023-01-13T14:50:31.567Z,101546.50
2023-01-13T14:52:58.283Z,101551.88
2023-01-13T14:55:40.692Z,101552.72
2023-01-13T14:58:22.279Z,101561.66
2023-01-13T15:00:49.719Z,101557.25
2023-01-13T15:03:17.944Z,101554.56
2023-01-13T15:05:52.381Z,101541.97
2023-01-13T15:08:37.360Z,101546.50
2023-01-13T15:11:06.815Z,101551.00
2023-01-13T15:13:53.984Z,101552.84
2023-01-13T15:16:24.908Z,101564.47
2023-01-13T15:18:52.281Z,101568.00
2023-01-13T15:21:18.847Z,101568.00
2023-01-13T15:23:47.191Z,101575.09
2023-01-13T15:26:27.977Z,101575.97
2023-01-13T15:28:56.450Z,101574.13
2023-01-13T15:31:23.387Z,101582.44
2023-01-13T15:33:50.124Z,101595.88
2023-01-13T15:36:26.544Z,101586.94
2023-01-13T15:38:53.386Z,101596.84
2023-01-13T15:41:40.286Z,101602.22
2023-01-13T15:44:25.253Z,101607.59
2023-01-13T15:46:52.335Z,101612.13
2023-01-13T15:49:18.890Z,101602.22
2023-01-13T15:51:45.415Z,101586.06
2023-01-13T15:54:12.745Z,101596.84
2023-01-13T15:56:39.441Z,101574.47
2023-01-13T15:59:14.768Z,101582.66
2023-01-13T16:01:41.461Z,101587.28
2023-01-13T16:04:09.868Z,101575.78
2023-01-13T16:06:37.224Z,101585.78
2023-01-13T16:09:05.016Z,101581.63
2023-01-13T16:11:31.826Z,101591.03
2023-01-13T16:13:58.586Z,101594.28
2023-01-13T16:16:27.462Z,101604.72
2023-01-13T16:18:54.550Z,101613.34
2023-01-13T16:21:21.822Z,101624.66
2023-01-13T16:23:49.681Z,101620.66
2023-01-13T16:26:25.107Z,101621.84
2023-01-13T16:28:53.179Z,101615.22
2023-01-13T16:31:32.263Z,101624.56
2023-01-13T16:34:00.817Z,101628.88
2023-01-13T16:36:28.236Z,101627.84
2023-01-13T16:38:56.495Z,101631.25
2023-01-13T16:41:24.862Z,101646.31
2023-01-13T16:43:51.810Z,101653.47
2023-01-13T16:46:25.409Z,101646.47
2023-01-13T16:48:54.265Z,101646.66
2023-01-13T16:51:21.431Z,101644.50
2023-01-13T16:53:48.510Z,101652.97
2023-01-13T16:56:23.118Z,101650.69
2023-01-13T16:58:50.632Z,101654.72
2023-01-13T17:01:24.716Z,101663.13
2023-01-13T17:03:51.952Z,101654.53
2023-01-13T17:06:21.777Z,101654.09
2023-01-13T17:08:48.630Z,101666.81
2023-01-13T17:11:15.223Z,101662.53
2023-01-13T17:13:42.076Z,101657.34
2023-01-13T17:16:24.864Z,101660.56
2023-01-13T17:18:52.594Z,101669.94
2023-01-13T17:21:19.439Z,101673.69
2023-01-13T17:23:46.113Z,101673.69
2023-01-13T17:26:32.169Z,101672.25
2023-01-13T17:29:00.436Z,101685.09
2023-01-13T17:31:28.116Z,101688.72
2023-01-13T17:33:55.007Z,101696.94
2023-01-13T17:36:23.278Z,101697.16
2023-01-13T17:38:50.739Z,101695.50
2023-01-13T17:41:17.296Z,101697.53
2023-01-13T17:43:43.857Z,101698.69
2023-01-13T17:46:11.249Z,101689.88
2023-01-13T17:48:38.228Z,101697.16
2023-01-13T17:51:08.546Z,101701.66
2023-01-13T17:53:35.112Z,101702.88
2023-01-13T17:56:01.725Z,101708.41
2023-01-13T17:58:28.275Z,101722.09
2023-01-13T18:00:54.956Z,101737.47
2023-01-13T18:03:21.652Z,101733.38
2023-01-13T18:05:48.240Z,101724.66
2023-01-13T18:08:14.981Z,101732.69
2023-01-13T18:10:41.651Z,101736.22
2023-01-13T18:13:09.415Z,101740.44
2023-01-13T18:15:37.155Z,101743.59
2023-01-13T18:18:03.876Z,101733.66
2023-01-13T18:20:48.977Z,101741.88
2023-01-13T18:23:40.001Z,101748.84
2023-01-13T18:26:35.429Z,101750.34
2023-01-13T18:29:02.024Z,101758.66
2023-01-13T18:31:28.740Z,101755.88
2023-01-13T18:33:55.323Z,101762.88
2023-01-13T18:36:21.967Z,101763.63
2023-01-13T18:38:49.401Z,101761.72
2023-01-13T18:41:35.071Z,101758.97
2023-01-13T18:44:01.700Z,101758.28
2023-01-13T18:46:28.223Z,101755.69
2023-01-13T18:48:54.935Z,101769.28
2023-01-13T18:51:21.645Z,101773.34
2023-01-13T18:53:48.235Z,101785.34
2023-01-13T18:56:15.321Z,101781.75
2023-01-13T18:58:49.346Z,101775.44
2023-01-13T19:01:16.514Z,101779.00
2023-01-13T19:03:43.049Z,101772.88
2023-01-13T19:06:12.157Z,101779.50
2023-01-13T19:08:39.005Z,101773.75
2023-01-13T19:11:06.687Z,101772.53
2023-01-13T19:13:39.103Z,101764.94
2023-01-13T19:16:06.831Z,101771.34
2023-01-13T19:18:34.367Z,101774.09
2023-01-13T19:21:03.148Z,101777.72
2023-01-13T19:23:29.977Z,101798.31
2023-01-13T19:26:04.676Z,101796.38
2023-01-13T19:28:31.256Z,101794.63
2023-01-13T19:31:03.227Z,101790.06
2023-01-13T19:33:32.575Z,101786.53
2023-01-13T19:35:59.440Z,101787.38
2023-01-13T19:38:26.893Z,101786.59
2023-01-13T19:40:55.695Z,101796.53
2023-01-13T19:43:41.755Z,101800.31
2023-01-13T19:46:08.448Z,101804.09
2023-01-13T19:48:35.131Z,101808.75
2023-01-13T19:51:02.228Z,101816.09
2023-01-13T19:53:29.197Z,101811.75
2023-01-13T19:55:56.133Z,101817.28
2023-01-13T19:58:24.166Z,101819.09
2023-01-13T20:00:51.656Z,101818.31
2023-01-13T20:03:20.808Z,101815.81
2023-01-13T20:05:47.980Z,101814.16
2023-01-13T20:08:14.743Z,101821.31
2023-01-13T20:10:42.851Z,101820.47
2023-01-13T20:13:09.420Z,101825.81
2023-01-13T20:15:37.973Z,101831.06
2023-01-13T20:18:04.871Z,101837.19
2023-01-13T20:20:31.404Z,101826.69
2023-01-13T20:23:00.814Z,101833.28
2023-01-13T20:25:28.899Z,101830.78
2023-01-13T20:27:56.544Z,101827.34
2023-01-13T20:30:23.443Z,101835.53
2023-01-13T20:32:50.165Z,101843.88
2023-01-13T20:35:17.182Z,101831.63
2023-01-13T20:37:43.859Z,101837.97
2023-01-13T20:40:14.763Z,101834.50
2023-01-13T20:42:47.105Z,101836.63
2023-01-13T20:45:17.757Z,101847.66
2023-01-13T20:47:45.163Z,101841.53
2023-01-13T20:50:12.488Z,101845.94
2023-01-13T20:52:39.071Z,101839.94
2023-01-13T20:55:07.071Z,101846.31
2023-01-13T20:57:34.243Z,101856.31
2023-01-13T21:00:00.887Z,101859.75
2023-01-13T21:02:27.782Z,101860.69
2023-01-13T21:04:54.422Z,101862.59
2023-01-13T21:07:21.086Z,101856.47
2023-01-13T21:09:47.654Z,101863.75
2023-01-13T21:12:33.707Z,101864.72
2023-01-13T21:15:20.016Z,101860.41
2023-01-13T21:18:06.729Z,101849.72
2023-01-13T21:20:34.745Z,101861.50
2023-01-13T21:23:02.705Z,101853.63
2023-01-13T21:25:30.266Z,101858.09
2023-01-13T21:28:07.831Z,101851.03
2023-01-13T21:30:34.924Z,101851.13
2023-01-13T21:33:03.859Z,101860.72
2023-01-13T21:35:30.636Z,101858.03
2023-01-13T21:37:57.463Z,101863.44
2023-01-13T21:40:23.998Z,101868.84
2023-01-13T21:43:08.876Z,101878.84
2023-01-13T21:45:54.024Z,101886.97
2023-01-13T21:48:20.596Z,101881.03
2023-01-13T21:50:47.108Z,101881.41
2023-01-13T21:53:13.687Z,101891.34
2023-01-13T21:55:41.627Z,101901.16
2023-01-13T21:58:13.433Z,101899.44
2023-01-13T22:00:44.467Z,101907.44
2023-01-13T22:03:12.470Z,101920.06
2023-01-13T22:05:39.706Z,101924.53
2023-01-13T22:08:06.796Z,101921.94
2023-01-13T22:10:33.436Z,101917.47
2023-01-13T22:13:21.767Z,101917.63
2023-01-13T22:15:48.408Z,101917.69
2023-01-13T22:18:15.048Z,101932.97
2023-01-13T22:20:42.233Z,101940.97
2023-01-13T22:23:08.843Z,101939.16
2023-01-13T22:25:35.454Z,101940.97
2023-01-13T22:28:06.119Z,101938.38
2023-01-13T22:30:33.228Z,101943.88
2023-01-13T22:33:00.309Z,101954.81
2023-01-13T22:35:26.905Z,101951.34
2023-01-13T22:37:53.425Z,101955.69
2023-01-13T22:40:20.204Z,101942.28
2023-01-13T22:42:46.949Z,101950.22
2023-01-13T22:45:14.401Z,101941.25
2023-01-13T22:47:41.361Z,101947.44
2023-01-13T22:50:10.244Z,101943.06
2023-01-13T22:52:36.919Z,101937.81
2023-01-13T22:55:04.214Z,101937.00
2023-01-13T22:57:35.968Z,101947.84
2023-01-13T23:00:06.352Z,101939.97
2023-01-13T23:02:34.443Z,101939.16
2023-01-13T23:05:01.476Z,101943.66
2023-01-13T23:07:28.159Z,101938.34
2023-01-13T23:09:54.651Z,101940.38
2023-01-13T23:12:21.289Z,101941.59
2023-01-13T23:14:47.861Z,101945.25
2023-01-13T23:17:14.391Z,101940.16
2023-01-13T23:19:40.962Z,101927.84
2023-01-13T23:22:07.626Z,101924.22
2023-01-13T23:24:34.277Z,101920.75
2023-01-13T23:27:00.843Z,101923.50
2023-01-13T23:29:31.276Z,101926.97
2023-01-13T23:31:57.866Z,101924.31
2023-01-13T23:34:24.445Z,101921.78
2023-01-13T23:36:51.024Z,101929.97
2023-01-13T23:39:17.619Z,101927.38
2023-01-13T23:41:44.177Z,101931.84
2023-01-13T23:44:10.775Z,101926.75
2023-01-13T23:46:37.367Z,101936.72
2023-01-13T23:49:04.532Z,101933.25
2023-01-13T23:51:31.357Z,101932.34
2023-01-13T23:53:59.061Z,101944.66
2023-01-13T23:56:28.112Z,101937.63
2023-01-13T23:58:54.883Z,101931.41
